Time;durP1;ratioP1;P1;durP2;ratioP2;P2;SDS_P1;SDS_P2;PMS_P1;PMS_P2;Temp;Humidity;BMP_temperature;BMP_pressure;BME280_temperature;BME280_humidity;BME280_pressure;Samples;Min_cycle;Max_cycle;Signal;HPM_P1;HPM_P2
2022/01/05 00:01:24;;;;;;;9.50;6.60;;;;;;;6.12;100.00;98664.84;4880566;29;20076;-90
2022/01/05 00:03:51;;;;;;;9.32;6.20;;;;;;;6.07;100.00;98664.22;4881217;29;20140;-90
2022/01/05 00:06:18;;;;;;;8.48;5.95;;;;;;;6.08;100.00;98650.16;4878116;29;20036;-90
2022/01/05 00:08:48;;;;;;;7.97;6.60;;;;;;;5.93;100.00;98621.19;4879074;29;20088;-91
2022/01/05 00:11:14;;;;;;;9.65;7.78;;;;;;;6.12;100.00;98657.81;4860705;29;20052;-90
2022/01/05 00:13:43;;;;;;;10.93;8.38;;;;;;;5.89;100.00;98624.91;4880222;29;20067;-90
2022/01/05 00:16:10;;;;;;;12.00;8.95;;;;;;;5.94;100.00;98637.81;4873225;29;20527;-90
2022/01/05 00:18:36;;;;;;;13.63;9.35;;;;;;;6.00;100.00;98632.19;4879609;29;20425;-89
2022/01/05 00:21:06;;;;;;;13.40;9.95;;;;;;;5.96;100.00;98628.06;4881890;29;20118;-90
2022/01/05 00:23:34;;;;;;;14.30;10.82;;;;;;;6.08;100.00;98640.50;4880780;29;20105;-89
2022/01/05 00:26:05;;;;;;;16.92;11.45;;;;;;;5.94;100.00;98620.25;4875385;29;20114;-89
2022/01/05 00:28:31;;;;;;;15.45;11.18;;;;;;;5.92;100.00;98602.88;4861824;29;20110;-89
2022/01/05 00:30:59;;;;;;;16.13;11.65;;;;;;;6.11;100.00;98634.22;4881639;29;20065;-90
2022/01/05 00:33:26;;;;;;;16.58;11.93;;;;;;;5.79;100.00;98576.44;4879421;29;20124;-90
2022/01/05 00:35:57;;;;;;;15.32;11.38;;;;;;;6.06;100.00;98607.34;4878236;29;20075;-91
2022/01/05 00:38:24;;;;;;;15.25;12.13;;;;;;;5.99;100.00;98589.31;4879309;29;20048;-91
2022/01/05 00:40:52;;;;;;;14.35;11.68;;;;;;;6.01;100.00;98591.84;4882115;29;20138;-90
2022/01/05 00:43:19;;;;;;;16.33;11.73;;;;;;;6.16;100.00;98616.41;4882596;29;20081;-90
2022/01/05 00:45:48;;;;;;;16.90;12.25;;;;;;;6.10;100.00;98601.84;4877015;29;20057;-90
2022/01/05 00:48:15;;;;;;;17.25;10.85;;;;;;;6.13;100.00;98601.69;4865080;29;20136;-91
2022/01/05 00:50:42;;;;;;;15.07;10.50;;;;;;;5.88;100.00;98543.53;4882207;29;20489;-90
2022/01/05 00:53:09;;;;;;;13.38;10.13;;;;;;;6.09;100.00;98587.00;4883195;29;20045;-89
2022/01/05 00:55:37;;;;;;;13.82;10.77;;;;;;;6.02;100.00;98587.44;4885003;29;20075;-89
2022/01/05 00:58:04;;;;;;;15.10;11.02;;;;;;;6.02;100.00;98582.19;4887241;29;20127;-90
2022/01/05 01:00:31;;;;;;;13.95;9.32;;;;;;;6.15;100.00;98599.78;4881607;29;20055;-90
2022/01/05 01:02:58;;;;;;;14.98;10.30;;;;;;;5.94;100.00;98557.22;4881828;29;20132;-90
2022/01/05 01:05:25;;;;;;;15.05;10.18;;;;;;;5.99;100.00;98568.28;4878202;29;20080;-91
2022/01/05 01:07:52;;;;;;;13.68;10.23;;;;;;;6.03;100.00;98578.63;4879627;29;20060;-90
2022/01/05 01:10:19;;;;;;;13.65;10.32;;;;;;;5.97;100.00;98567.56;4880060;29;20056;-89
2022/01/05 01:12:46;;;;;;;16.20;10.88;;;;;;;6.01;100.00;98564.72;4882337;29;20542;-90
2022/01/05 01:15:14;;;;;;;14.45;10.93;;;;;;;5.98;100.00;98565.78;4875915;29;20150;-90
2022/01/05 01:17:41;;;;;;;15.80;11.90;;;;;;;5.92;100.00;98569.59;4873947;29;20060;-90
2022/01/05 01:20:11;;;;;;;19.75;12.57;;;;;;;5.75;100.00;98548.66;4876687;29;20048;-90
2022/01/05 01:22:39;;;;;;;19.38;12.18;;;;;;;5.93;100.00;98586.19;4880139;29;20056;-90
2022/01/05 01:25:06;;;;;;;17.80;12.10;;;;;;;5.76;100.00;98547.72;4882431;29;20120;-90
2022/01/05 01:27:34;;;;;;;17.67;12.98;;;;;;;5.75;100.00;98564.41;4872168;29;20120;-90
2022/01/05 01:30:02;;;;;;;15.98;11.90;;;;;;;5.92;100.00;98581.88;4881901;29;20469;-90
2022/01/05 01:32:29;;;;;;;15.32;11.55;;;;;;;5.94;100.00;98603.66;4878498;29;20101;-90
2022/01/05 01:34:58;;;;;;;15.15;11.82;;;;;;;5.97;100.00;98588.56;4880258;29;20061;-92
2022/01/05 01:37:25;;;;;;;13.77;10.57;;;;;;;5.93;100.00;98594.94;4878529;29;20059;-92
2022/01/05 01:39:52;;;;;;;15.50;11.70;;;;;;;5.93;100.00;98600.19;4878965;29;20176;-90
2022/01/05 01:42:19;;;;;;;14.02;10.50;;;;;;;6.11;100.00;98628.97;4880273;29;20123;-90
2022/01/05 01:44:48;;;;;;;15.05;11.20;;;;;;;6.17;100.00;98637.34;4879571;29;20059;-91
2022/01/05 01:47:15;;;;;;;15.30;11.55;;;;;;;5.97;100.00;98595.59;4875878;29;20105;-91
2022/01/05 01:49:47;;;;;;;15.63;11.75;;;;;;;6.03;100.00;98607.53;4879863;29;20060;-90
2022/01/05 01:52:14;;;;;;;15.35;11.60;;;;;;;6.16;100.00;98626.91;4879771;29;20104;-90
2022/01/05 01:54:41;;;;;;;13.98;11.02;;;;;;;5.97;100.00;98614.84;4869927;29;20045;-90
2022/01/05 01:57:12;;;;;;;15.13;11.73;;;;;;;5.92;100.00;98602.88;4876358;29;20037;-91
2022/01/05 01:59:44;;;;;;;15.55;12.05;;;;;;;5.89;100.00;98608.31;4884304;29;20084;-91
2022/01/05 02:02:12;;;;;;;16.20;12.15;;;;;;;5.84;100.00;98605.06;4870005;29;20101;-91
2022/01/05 02:04:41;;;;;;;17.85;12.38;;;;;;;5.85;100.00;98602.34;4880513;29;20056;-92
2022/01/05 02:07:08;;;;;;;17.73;12.48;;;;;;;5.83;100.00;98604.19;4876249;29;20072;-91
2022/01/05 02:09:36;;;;;;;15.98;10.50;;;;;;;5.90;100.00;98599.50;4880087;29;20105;-92
2022/01/05 02:12:08;;;;;;;16.25;10.70;;;;;;;5.93;100.00;98615.94;4863122;29;20157;-90
2022/01/05 02:14:37;;;;;;;;;;;;;;;5.95;100.00;98645.59;4880671;29;20041;-91
2022/01/05 02:17:10;;;;;;;13.95;10.60;;;;;;;5.72;100.00;98603.97;4874531;29;19927;-91
2022/01/05 02:19:43;;;;;;;13.57;9.18;;;;;;;5.75;100.00;98619.56;4879830;29;20144;-91
2022/01/05 02:22:10;;;;;;;13.88;9.65;;;;;;;5.69;100.00;98629.53;4879218;29;20048;-92
2022/01/05 02:24:38;;;;;;;10.32;7.68;;;;;;;5.74;100.00;98620.50;4879805;29;20045;-91
2022/01/05 02:27:21;;;;;;;11.05;7.55;;;;;;;5.79;100.00;98644.72;4870054;29;20212;-91
2022/01/05 02:30:07;;;;;;;1.73;1.50;;;;;;;5.55;100.00;98699.41;4881924;29;20037;-94
2022/01/05 02:32:44;;;;;;;1.70;1.20;;;;;;;4.83;100.00;98662.16;4881641;29;20067;-91
2022/01/05 02:35:15;;;;;;;1.00;0.70;;;;;;;4.50;100.00;98676.03;4883170;29;20097;-93
2022/01/05 02:38:05;;;;;;;1.30;0.40;;;;;;;4.43;100.00;98711.31;4874542;29;20051;-92
2022/01/05 02:40:33;;;;;;;0.60;0.50;;;;;;;4.22;100.00;98728.94;4884234;29;20052;-93
2022/01/05 02:43:00;;;;;;;1.50;0.47;;;;;;;3.96;100.00;98704.88;4880468;29;20206;-92
2022/01/05 02:45:27;;;;;;;0.50;0.45;;;;;;;4.14;100.00;98736.28;4874897;29;20319;-93
2022/01/05 02:47:55;;;;;;;0.65;0.30;;;;;;;4.08;100.00;98752.31;4877817;29;20476;-91
2022/01/05 02:50:22;;;;;;;0.30;0.30;;;;;;;3.93;100.00;98737.31;4880786;29;20055;-90
2022/01/05 02:52:51;;;;;;;1.45;0.40;;;;;;;4.02;100.00;98765.69;4864485;29;20063;-90
2022/01/05 02:55:17;;;;;;;0.95;0.32;;;;;;;3.96;100.00;98757.25;4885524;29;20056;-91
2022/01/05 02:57:44;;;;;;;3.63;0.88;;;;;;;4.07;100.00;98783.81;4858616;29;20053;-91
2022/01/05 03:00:13;;;;;;;0.95;0.82;;;;;;;3.85;100.00;98742.03;4883237;29;20147;-92
2022/01/05 03:02:40;;;;;;;1.25;0.82;;;;;;;3.94;100.00;98761.72;4883101;29;20136;-91
2022/01/05 03:05:07;;;;;;;1.80;0.90;;;;;;;3.98;100.00;98777.22;4879868;29;20053;-91
2022/01/05 03:07:39;;;;;;;1.30;0.90;;;;;;;3.88;100.00;98765.47;4871296;29;20050;-91
2022/01/05 03:10:07;;;;;;;1.33;1.10;;;;;;;3.87;100.00;98771.63;4880734;29;20072;-91
2022/01/05 03:12:37;;;;;;;1.13;1.00;;;;;;;3.81;100.00;98764.03;4882332;29;20095;-91
2022/01/05 03:15:05;;;;;;;1.83;0.90;;;;;;;3.97;100.00;98799.09;4878593;29;20065;-89
2022/01/05 03:17:31;;;;;;;0.98;0.73;;;;;;;3.84;100.00;98795.34;4878896;29;20057;-90
2022/01/05 03:20:01;;;;;;;1.33;0.82;;;;;;;3.85;100.00;98810.97;4888300;29;20607;-92
2022/01/05 03:22:27;;;;;;;0.88;0.88;;;;;;;3.79;100.00;98820.88;4882619;29;20103;-91
2022/01/05 03:24:54;;;;;;;1.10;0.75;;;;;;;3.63;100.00;98785.81;4892490;29;20057;-91
2022/01/05 03:27:23;;;;;;;0.90;0.70;;;;;;;3.77;100.00;98830.59;4875775;29;20568;-90
2022/01/05 03:29:50;;;;;;;0.80;0.80;;;;;;;3.63;100.00;98828.53;4879689;29;20500;-90
2022/01/05 03:32:17;;;;;;;0.70;0.70;;;;;;;3.79;100.00;98861.00;4888165;29;20053;-90
2022/01/05 03:34:45;;;;;;;3.33;0.93;;;;;;;3.64;100.00;98840.72;4885483;29;20045;-90
2022/01/05 03:37:16;;;;;;;0.77;0.70;;;;;;;3.84;100.00;98852.94;4885234;29;20120;-90
2022/01/05 03:39:43;;;;;;;1.90;0.90;;;;;;;3.79;99.90;98839.19;4878939;29;20079;-91
2022/01/05 03:42:12;;;;;;;3.30;0.63;;;;;;;3.76;100.00;98841.97;4869331;29;20105;-90
2022/01/05 03:44:39;;;;;;;0.73;0.65;;;;;;;3.85;100.00;98880.81;4879967;29;20114;-90
2022/01/05 03:47:08;;;;;;;1.00;0.47;;;;;;;3.52;99.68;98830.78;4878350;29;20067;-90
2022/01/05 03:49:36;;;;;;;1.60;0.70;;;;;;;3.62;99.52;98865.28;4882055;29;20077;-91
2022/01/05 03:52:04;;;;;;;2.13;0.80;;;;;;;3.54;96.79;98839.41;4880010;29;20057;-90
2022/01/05 03:54:31;;;;;;;1.30;0.50;;;;;;;3.62;96.97;98867.91;4881244;29;20083;-90
2022/01/05 03:56:57;;;;;;;1.90;0.80;;;;;;;3.55;98.88;98871.69;4881194;29;20056;-90
2022/01/05 03:59:25;;;;;;;1.58;0.70;;;;;;;3.63;97.73;98883.50;4881481;29;20423;-90
2022/01/05 04:01:53;;;;;;;2.55;0.70;;;;;;;3.82;97.14;98933.31;4888193;29;20053;-90
2022/01/05 04:04:20;;;;;;;1.90;0.82;;;;;;;3.65;97.30;98894.78;4881349;29;22393;-93
2022/01/05 04:06:46;;;;;;;2.20;0.80;;;;;;;3.73;97.14;98918.03;4877879;29;20136;-89
2022/01/05 04:09:13;;;;;;;0.50;0.43;;;;;;;3.46;97.86;98893.88;4878592;29;20109;-90
2022/01/05 04:11:42;;;;;;;1.38;0.70;;;;;;;3.64;96.58;98921.84;4881471;29;20132;-90
2022/01/05 04:14:10;;;;;;;3.47;0.80;;;;;;;3.82;97.15;98969.97;4880284;29;20064;-90
2022/01/05 04:16:37;;;;;;;1.48;0.90;;;;;;;3.75;92.67;98961.53;4865603;29;20132;-90
2022/01/05 04:19:03;;;;;;;1.23;0.63;;;;;;;3.60;92.06;98959.56;4879596;29;20100;-90
2022/01/05 04:21:30;;;;;;;7.88;0.93;;;;;;;3.53;91.83;98963.34;4880814;29;20101;-90
2022/01/05 04:23:57;;;;;;;4.95;0.73;;;;;;;3.64;93.66;99000.38;4886325;29;20064;-89
2022/01/05 04:26:24;;;;;;;4.07;0.70;;;;;;;3.51;90.42;98957.31;4880261;29;20057;-90
2022/01/05 04:28:51;;;;;;;5.35;0.75;;;;;;;3.69;88.71;98980.13;4876595;29;20053;-91
2022/01/05 04:31:18;;;;;;;2.60;0.65;;;;;;;3.54;90.89;98978.13;4864715;29;20076;-89
2022/01/05 04:33:44;;;;;;;2.90;0.85;;;;;;;3.51;88.84;98997.44;4881089;29;20143;-89
2022/01/05 04:36:31;;;;;;;4.85;1.05;;;;;;;3.30;92.20;98966.06;4877479;29;20128;-89
2022/01/05 04:38:58;;;;;;;5.70;1.00;;;;;;;3.68;93.46;99029.91;4869209;29;20139;-89
2022/01/05 04:41:25;;;;;;;4.05;1.02;;;;;;;3.35;92.73;98990.25;4881751;29;20048;-90
2022/01/05 04:43:52;;;;;;;2.92;0.93;;;;;;;3.56;94.17;99041.75;4881831;29;20129;-90
2022/01/05 04:46:18;;;;;;;5.68;1.20;;;;;;;3.47;96.79;99036.84;4881415;29;20143;-89
2022/01/05 04:48:45;;;;;;;5.60;1.52;;;;;;;3.25;94.38;99008.09;4877843;29;20056;-88
2022/01/05 04:51:12;;;;;;;4.75;2.20;;;;;;;3.44;93.87;99053.56;4871602;29;20052;-89
2022/01/05 04:53:39;;;;;;;4.85;2.10;;;;;;;3.41;94.61;99058.06;4893205;29;20061;-89
2022/01/05 04:56:05;;;;;;;5.30;2.25;;;;;;;3.64;93.38;99101.63;4888758;29;20053;-90
2022/01/05 04:58:32;;;;;;;9.02;2.92;;;;;;;3.38;94.71;99076.47;4861950;29;20062;-89
2022/01/05 05:00:59;;;;;;;6.78;2.80;;;;;;;3.32;95.31;99089.78;4883666;29;20056;-90
2022/01/05 05:03:28;;;;;;;7.00;3.08;;;;;;;3.13;93.11;99059.13;4888379;29;20079;-89
2022/01/05 05:05:55;;;;;;;8.65;3.78;;;;;;;3.35;93.90;99089.69;4888409;29;20061;-89
2022/01/05 05:08:21;;;;;;;9.38;3.00;;;;;;;3.55;91.62;99110.72;4886523;29;20063;-90
2022/01/05 05:10:49;;;;;;;6.45;2.92;;;;;;;3.31;92.31;99083.69;4881738;29;20108;-89
2022/01/05 05:13:16;;;;;;;8.75;3.55;;;;;;;3.37;93.75;99108.78;4863673;29;20079;-89
2022/01/05 05:15:43;;;;;;;8.32;3.28;;;;;;;3.43;94.08;99130.34;4898619;29;20041;-90
2022/01/05 05:18:10;;;;;;;8.02;3.38;;;;;;;3.33;92.47;99112.44;4893429;29;20061;-89
2022/01/05 05:20:36;;;;;;;10.13;3.63;;;;;;;3.25;94.16;99115.34;4897021;29;20105;-89
2022/01/05 05:23:04;;;;;;;7.32;3.35;;;;;;;3.30;94.46;99134.34;4891642;29;20055;-89
2022/01/05 05:25:30;;;;;;;6.75;3.28;;;;;;;3.24;94.22;99116.25;4899488;29;20044;-89
2022/01/05 05:27:57;;;;;;;9.38;3.85;;;;;;;3.29;94.59;99132.66;4888053;29;20029;-89
2022/01/05 05:30:33;;;;;;;10.27;3.53;;;;;;;3.45;94.58;99153.84;4871798;29;20045;-89
2022/01/05 05:33:00;;;;;;;5.22;2.78;;;;;;;3.39;92.69;99130.53;4881634;29;20053;-90
2022/01/05 05:35:27;;;;;;;9.38;3.03;;;;;;;3.34;94.04;99135.91;4868382;29;20054;-90
2022/01/05 05:37:55;;;;;;;10.75;3.53;;;;;;;3.08;93.89;99096.81;4892304;29;20056;-89
2022/01/05 05:40:23;;;;;;;13.77;3.72;;;;;;;3.30;93.46;99139.59;4891750;29;20068;-89
2022/01/05 05:42:50;;;;;;;7.25;3.65;;;;;;;3.05;93.73;99096.94;4872233;29;20139;-89
2022/01/05 05:45:19;;;;;;;7.38;3.70;;;;;;;3.06;94.83;99141.34;4881203;29;20053;-89
2022/01/05 05:47:46;;;;;;;11.13;3.95;;;;;;;3.21;92.86;99154.75;4864508;29;20053;-89
2022/01/05 05:50:13;;;;;;;9.20;2.90;;;;;;;3.23;93.00;99173.88;4882686;29;20045;-90
2022/01/05 05:52:40;;;;;;;10.93;2.75;;;;;;;3.25;89.73;99174.66;4884529;29;20453;-90
2022/01/05 05:55:07;;;;;;;7.60;3.00;;;;;;;3.25;90.38;99182.53;4883302;29;20511;-89
2022/01/05 05:57:41;;;;;;;7.97;2.78;;;;;;;2.93;88.54;99134.84;4882241;29;20068;-89
2022/01/05 06:00:09;;;;;;;10.13;3.05;;;;;;;3.31;87.31;99203.19;4880050;29;20045;-89
2022/01/05 06:02:36;;;;;;;8.27;2.60;;;;;;;3.09;89.60;99177.84;4866231;29;20053;-89
2022/01/05 06:05:04;;;;;;;6.32;2.55;;;;;;;3.30;86.52;99209.38;4878237;29;20531;-89
2022/01/05 06:07:30;;;;;;;9.93;2.78;;;;;;;3.14;88.37;99201.22;4881531;29;20060;-89
2022/01/05 06:09:58;;;;;;;7.63;2.92;;;;;;;3.20;88.07;99218.44;4878438;29;20069;-89
2022/01/05 06:12:26;;;;;;;11.25;2.55;;;;;;;3.09;85.33;99200.53;4880691;29;20401;-89
2022/01/05 06:14:53;;;;;;;5.40;2.25;;;;;;;3.03;82.15;99174.59;4874414;29;20092;-89
2022/01/05 06:17:20;;;;;;;10.52;2.65;;;;;;;3.05;84.52;99212.00;4878896;29;20140;-90
2022/01/05 06:19:49;;;;;;;10.73;2.65;;;;;;;3.16;82.74;99231.63;4863038;29;20093;-89
2022/01/05 06:22:17;;;;;;;7.97;2.47;;;;;;;3.18;87.22;99258.59;4880842;29;20059;-89
2022/01/05 06:24:48;;;;;;;5.45;2.10;;;;;;;3.16;82.82;99226.41;4887541;29;20112;-89
2022/01/05 06:27:14;;;;;;;9.75;2.28;;;;;;;3.04;82.46;99245.13;4880215;29;20088;-89
2022/01/05 06:29:41;;;;;;;11.90;2.63;;;;;;;2.88;81.85;99225.66;4882340;29;20068;-88
2022/01/05 06:32:08;;;;;;;8.77;2.22;;;;;;;2.93;77.87;99241.19;4885101;29;20538;-88
2022/01/05 06:34:35;;;;;;;8.25;2.33;;;;;;;2.84;77.21;99239.72;4896012;29;20412;-88
2022/01/05 06:37:03;;;;;;;8.43;1.70;;;;;;;2.69;76.13;99237.63;4865642;29;20069;-89
2022/01/05 06:39:30;;;;;;;6.20;1.67;;;;;;;3.00;76.34;99290.59;4876797;29;20072;-89
2022/01/05 06:41:57;;;;;;;6.97;1.70;;;;;;;2.96;75.94;99303.84;4877187;29;20483;-89
2022/01/05 06:44:24;;;;;;;8.95;1.25;;;;;;;2.78;76.85;99271.34;4881194;29;20052;-89
2022/01/05 06:46:51;;;;;;;6.93;1.75;;;;;;;2.95;74.42;99287.31;4881329;29;20060;-89
2022/01/05 06:49:20;;;;;;;7.25;1.58;;;;;;;3.04;74.85;99309.66;4877915;29;20049;-89
2022/01/05 06:51:48;;;;;;;10.13;1.80;;;;;;;2.95;74.81;99289.94;4880798;29;20049;-90
2022/01/05 06:54:16;;;;;;;5.00;1.60;;;;;;;3.19;73.59;99306.53;4862627;29;20053;-88
2022/01/05 06:56:44;;;;;;;5.63;1.63;;;;;;;3.01;73.33;99289.69;4878741;29;20136;-90
2022/01/05 06:59:14;;;;;;;9.30;2.00;;;;;;;3.08;74.75;99303.44;4876247;29;20053;-90
2022/01/05 07:01:41;;;;;;;8.07;2.00;;;;;;;3.10;74.80;99328.63;4878999;29;20061;-89
2022/01/05 07:04:08;;;;;;;6.60;1.55;;;;;;;3.12;74.39;99337.28;4878106;29;20549;-88
2022/01/05 07:06:34;;;;;;;8.95;2.00;;;;;;;3.02;74.73;99337.63;4877988;29;20178;-89
2022/01/05 07:09:02;;;;;;;5.57;1.92;;;;;;;2.85;75.58;99313.78;4875857;29;20056;-88
2022/01/05 07:11:28;;;;;;;6.85;1.60;;;;;;;2.94;75.07;99331.81;4875598;29;20055;-87
2022/01/05 07:13:55;;;;;;;8.40;2.05;;;;;;;2.90;74.49;99322.34;4874986;29;20065;-88
2022/01/05 07:16:22;;;;;;;5.80;1.90;;;;;;;2.96;75.49;99343.09;4878159;29;20061;-87
2022/01/05 07:18:50;;;;;;;13.73;2.15;;;;;;;2.82;75.05;99335.69;4874221;29;20080;-90
2022/01/05 07:21:16;;;;;;;7.65;2.00;;;;;;;2.85;74.78;99339.94;4880398;29;20416;-88
2022/01/05 07:23:43;;;;;;;8.55;1.50;;;;;;;2.67;74.38;99328.34;4870295;29;20063;-89
2022/01/05 07:26:13;;;;;;;8.07;1.80;;;;;;;2.86;74.08;99358.19;4867877;29;20057;-89
2022/01/05 07:28:41;;;;;;;5.55;1.50;;;;;;;2.78;74.00;99352.38;4881342;29;20098;-90
2022/01/05 07:31:15;;;;;;;6.65;1.67;;;;;;;2.85;73.16;99368.69;4881126;29;20041;-92
2022/01/05 07:33:42;;;;;;;7.03;1.85;;;;;;;2.44;73.55;99326.44;4878843;29;20083;-88
2022/01/05 07:36:09;;;;;;;8.07;2.03;;;;;;;2.61;75.32;99365.13;4876710;29;20139;-89
2022/01/05 07:38:35;;;;;;;8.05;2.08;;;;;;;2.68;74.59;99379.69;4880109;29;20053;-90
2022/01/05 07:41:03;;;;;;;10.48;1.92;;;;;;;2.40;74.60;99350.94;4880589;29;20820;-90
2022/01/05 07:43:29;;;;;;;4.50;1.50;;;;;;;2.47;74.29;99363.78;4880214;29;20049;-89
2022/01/05 07:45:56;;;;;;;8.90;1.80;;;;;;;2.45;73.83;99370.81;4878678;29;20109;-89
2022/01/05 07:48:23;;;;;;;8.50;1.70;;;;;;;2.44;74.89;99379.56;4878698;29;20084;-90
2022/01/05 07:50:50;;;;;;;4.13;1.52;;;;;;;2.22;75.85;99368.03;4861245;29;20041;-90
2022/01/05 07:53:16;;;;;;;4.18;1.60;;;;;;;2.32;76.29;99387.75;4880888;29;20050;-89
2022/01/05 07:55:43;;;;;;;5.38;1.88;;;;;;;2.21;75.92;99365.44;4881184;29;20049;-89
2022/01/05 07:58:10;;;;;;;9.55;2.00;;;;;;;2.21;77.02;99374.13;4872805;29;20057;-89
2022/01/05 08:00:37;;;;;;;6.57;1.77;;;;;;;2.21;76.34;99375.91;4876048;29;20049;-89
2022/01/05 08:03:04;;;;;;;7.50;1.77;;;;;;;2.44;76.09;99412.66;4877945;29;20133;-89
2022/01/05 08:05:32;;;;;;;7.25;1.52;;;;;;;2.22;75.09;99373.25;4876344;29;20064;-88
2022/01/05 08:07:58;;;;;;;6.47;1.67;;;;;;;2.31;75.95;99387.81;4878651;29;20049;-89
2022/01/05 08:10:25;;;;;;;6.63;2.03;;;;;;;2.46;75.20;99426.53;4874565;29;20069;-88
2022/01/05 08:12:52;;;;;;;8.32;1.88;;;;;;;2.37;73.05;99388.47;4875359;29;20057;-90
2022/01/05 08:15:18;;;;;;;4.60;1.38;;;;;;;2.47;73.33;99384.69;4881360;29;20081;-88
2022/01/05 08:17:46;;;;;;;8.05;2.55;;;;;;;2.52;72.78;99394.97;4882714;29;20064;-90
2022/01/05 08:20:12;;;;;;;7.82;2.75;;;;;;;2.73;71.38;99423.09;4872405;29;20144;-89
2022/01/05 08:22:44;;;;;;;5.38;1.50;;;;;;;2.80;72.45;99424.63;4876358;29;20077;-89
2022/01/05 08:25:15;;;;;;;7.25;1.77;;;;;;;2.85;71.23;99439.28;4879522;29;20048;-89
2022/01/05 08:27:46;;;;;;;;;;;;;;;2.93;70.32;99432.94;4878906;29;20533;-87
2022/01/05 08:30:16;;;;;;;6.15;1.88;;;;;;;2.73;71.92;99410.03;4874444;29;19935;-89
2022/01/05 08:32:44;;;;;;;6.23;1.70;;;;;;;2.64;70.94;99399.00;4883469;29;20056;-88
2022/01/05 08:35:12;;;;;;;7.78;1.42;;;;;;;2.66;70.36;99391.97;4881576;29;20056;-89
2022/01/05 08:37:43;;;;;;;8.50;1.65;;;;;;;3.10;71.73;99443.72;4865376;29;20082;-88
2022/01/05 08:40:18;;;;;;;7.43;1.70;;;;;;;2.88;68.69;99413.91;4879011;29;20496;-88
2022/01/05 08:42:46;;;;;;;6.97;1.60;;;;;;;2.92;69.41;99427.75;4882860;29;20053;-87
2022/01/05 08:45:15;;;;;;;5.40;1.98;;;;;;;2.76;68.77;99416.91;4879043;29;20081;-88
2022/01/05 08:47:47;;;;;;;9.02;2.05;;;;;;;3.01;67.94;99462.31;4886352;29;20049;-88
2022/01/05 08:50:16;;;;;;;7.72;1.63;;;;;;;2.98;69.32;99459.81;4859712;29;20513;-90
2022/01/05 08:52:44;;;;;;;7.87;1.93;;;;;;;3.00;69.01;99447.53;4875900;29;20401;-88
2022/01/05 08:55:14;;;;;;;7.50;1.85;;;;;;;3.18;70.04;99473.09;4882758;29;20067;-88
2022/01/05 08:57:42;;;;;;;7.28;1.80;;;;;;;3.24;68.90;99471.19;4883988;29;20049;-88
2022/01/05 09:00:10;;;;;;;8.77;1.88;;;;;;;3.16;69.02;99450.50;4876997;29;20049;-89
2022/01/05 09:02:39;;;;;;;11.38;2.50;;;;;;;3.16;68.62;99460.97;4880751;29;20068;-88
2022/01/05 09:05:07;;;;;;;8.85;1.85;;;;;;;3.31;68.55;99475.31;4879266;29;20061;-89
2022/01/05 09:07:35;;;;;;;9.00;1.80;;;;;;;3.43;68.08;99480.19;4879150;29;20113;-89
2022/01/05 09:10:04;;;;;;;5.07;1.65;;;;;;;3.24;67.14;99442.44;4877277;29;20053;-90
2022/01/05 09:12:32;;;;;;;7.10;1.60;;;;;;;3.55;66.50;99474.53;4880868;29;20052;-89
2022/01/05 09:14:59;;;;;;;6.13;1.80;;;;;;;3.75;66.59;99498.31;4879938;29;20065;-88
2022/01/05 09:17:27;;;;;;;6.38;1.95;;;;;;;3.51;68.20;99472.91;4881762;29;20072;-88
2022/01/05 09:19:54;;;;;;;10.20;2.67;;;;;;;3.57;67.91;99485.81;4875591;29;20394;-88
2022/01/05 09:22:21;;;;;;;7.70;2.53;;;;;;;3.61;67.78;99494.44;4876201;29;20080;-90
2022/01/05 09:24:50;;;;;;;9.60;2.63;;;;;;;3.31;67.97;99475.31;4882283;29;20108;-89
2022/01/05 09:27:17;;;;;;;7.75;1.58;;;;;;;3.49;68.17;99508.75;4887525;29;20049;-89
2022/01/05 09:29:45;;;;;;;10.57;2.40;;;;;;;3.46;67.25;99504.47;4886005;29;20056;-90
2022/01/05 09:32:13;;;;;;;3.75;1.50;;;;;;;3.44;67.83;99505.44;4884459;29;20053;-89
2022/01/05 09:34:41;;;;;;;8.68;2.17;;;;;;;3.54;67.00;99514.69;4884608;29;20053;-89
2022/01/05 09:37:25;;;;;;;10.13;1.85;;;;;;;3.21;66.68;99485.22;4885652;29;20104;-90
2022/01/05 09:42:39;;;;;;;8.40;1.73;;;;;;;3.53;68.27;99539.16;4881412;29;20049;-90
2022/01/05 09:45:18;;;;;;;9.55;2.10;;;;;;;3.50;67.36;99532.25;4891299;29;20049;-89
2022/01/05 09:48:20;;;;;;;17.63;2.92;;;;;;;3.63;69.34;99550.19;4892342;29;20084;-88
2022/01/05 09:51:02;;;;;;;10.88;2.22;;;;;;;3.70;67.48;99556.94;4881568;29;20144;-89
2022/01/05 09:53:30;;;;;;;10.70;2.28;;;;;;;3.68;68.85;99567.47;4878201;29;20049;-90
2022/01/05 09:56:17;;;;;;;7.80;1.90;;;;;;;3.51;67.45;99530.50;4879921;29;20049;-90
2022/01/05 09:58:44;;;;;;;10.07;2.33;;;;;;;3.44;67.63;99526.38;4881863;29;20057;-89
2022/01/05 10:01:12;;;;;;;11.98;2.42;;;;;;;3.31;69.22;99489.25;4877252;29;20053;-90
2022/01/05 10:03:39;;;;;;;10.68;2.35;;;;;;;3.65;72.64;99533.53;4874074;29;20076;-89
2022/01/05 10:06:12;;;;;;;8.50;2.03;;;;;;;3.74;70.91;99538.47;4876121;29;20049;-89
2022/01/05 10:08:40;;;;;;;9.35;2.05;;;;;;;3.73;71.38;99530.66;4885695;29;20053;-89
2022/01/05 10:11:09;;;;;;;8.15;2.60;;;;;;;3.62;70.28;99514.47;4877080;29;20317;-89
2022/01/05 10:13:39;;;;;;;10.98;2.10;;;;;;;3.85;68.44;99552.06;4880724;29;20063;-90
2022/01/05 10:16:08;;;;;;;15.77;3.30;;;;;;;3.70;68.25;99544.72;4880486;29;20132;-90
2022/01/05 10:20:05;;;;;;;10.60;2.30;;;;;;;3.53;68.00;99528.69;4880738;29;20057;-92
2022/01/05 10:23:16;;;;;;;9.90;2.00;;;;;;;3.74;67.13;99564.66;4776230;29;20059;-92
2022/01/05 10:26:23;;;;;;;9.05;2.17;;;;;;;3.65;67.18;99543.16;4808408;29;20174;-91
2022/01/05 10:29:42;;;;;;;12.57;2.50;;;;;;;3.82;67.00;99564.41;4802504;29;20090;-91
2022/01/05 10:37:53;;;;;;;;;;;;;;;;;;;;;
2022/01/05 10:41:35;;;;;;;;;;;;;;;;;;;;;
2022/01/05 10:45:10;;;;;;;8.35;2.00;;;;;;;3.94;66.42;99571.00;4887886;24;20124;-92
2022/01/05 11:06:55;;;;;;;9.27;2.30;;;;;;;3.50;67.77;99510.47;4770471;29;20043;-93
2022/01/05 11:19:22;;;;;;;8.45;1.90;;;;;;;4.09;66.36;99541.69;5553537;24;20069;-88
2022/01/05 11:22:12;;;;;;;6.95;2.47;;;;;;;4.25;66.13;99562.97;4825262;29;20054;-88
2022/01/05 11:24:45;;;;;;;9.25;2.15;;;;;;;4.25;65.64;99560.38;4829783;29;20137;-88
2022/01/05 11:27:28;;;;;;;10.63;3.22;;;;;;;4.05;65.97;99513.88;4821506;29;20054;-88
2022/01/05 11:29:56;;;;;;;6.25;1.75;;;;;;;4.05;65.65;99500.78;4824628;29;20082;-89
2022/01/05 11:44:57;;;;;;;6.80;1.77;;;;;;;4.37;64.79;99560.78;4847184;24;20113;-89
2022/01/05 11:47:35;;;;;;;8.80;1.90;;;;;;;4.32;64.84;99540.88;4895917;29;20056;-88
2022/01/05 11:50:14;;;;;;;9.95;2.42;;;;;;;4.42;64.99;99563.22;4899944;29;20584;-88
2022/01/05 11:53:19;;;;;;;13.65;2.88;;;;;;;4.02;65.26;99490.41;4901526;29;20076;-88
2022/01/05 11:56:06;;;;;;;9.52;1.77;;;;;;;4.06;64.92;99492.00;4896139;29;20052;-89
2022/01/05 11:58:36;;;;;;;7.70;1.95;;;;;;;4.26;64.77;99525.34;4903889;29;20140;-88
2022/01/05 12:01:12;;;;;;;7.32;1.83;;;;;;;4.39;64.93;99540.63;4897797;29;20054;-88
2022/01/05 12:04:01;;;;;;;5.35;1.55;;;;;;;4.34;64.91;99550.41;4900959;29;20108;-87
2022/01/05 12:06:32;;;;;;;6.70;2.17;;;;;;;4.02;65.37;99486.00;4897094;29;20058;-89
2022/01/05 12:09:04;;;;;;;8.95;1.75;;;;;;;4.33;65.43;99526.88;4908780;29;20056;-89
2022/01/05 12:11:42;;;;;;;9.75;2.05;;;;;;;4.64;64.82;99537.09;4907739;29;20045;-88
2022/01/05 12:14:21;;;;;;;10.85;2.00;;;;;;;4.74;64.22;99538.47;4904762;29;20092;-89
2022/01/05 12:17:02;;;;;;;5.60;1.60;;;;;;;4.88;63.23;99549.31;4912069;29;20048;-88
2022/01/05 12:19:37;;;;;;;12.10;1.92;;;;;;;4.64;64.20;99510.88;4902602;29;20083;-88
2022/01/05 12:22:16;;;;;;;9.88;2.10;;;;;;;4.53;63.97;99499.03;4889916;29;20112;-88
2022/01/05 12:25:00;;;;;;;7.22;1.77;;;;;;;4.68;64.82;99549.19;4904451;29;20128;-87
2022/01/05 12:28:02;;;;;;;7.70;1.52;;;;;;;4.54;65.25;99524.34;4904752;29;20049;-88
2022/01/05 12:30:33;;;;;;;8.52;2.00;;;;;;;4.52;65.45;99514.81;4883642;29;20112;-87
2022/01/05 12:33:06;;;;;;;;;;;;;;;4.72;64.32;99554.25;4900192;29;20135;-87
2022/01/05 12:35:57;;;;;;;8.63;2.08;;;;;;;4.39;64.72;99503.94;4899476;29;19923;-89
2022/01/05 12:38:31;;;;;;;8.00;1.50;;;;;;;4.45;65.72;99508.06;4900775;29;20058;-88
2022/01/05 12:40:58;;;;;;;;;;;;;;;4.68;66.20;99547.44;4897324;29;20056;-88
2022/01/05 12:43:31;;;;;;;9.93;2.03;;;;;;;4.58;66.60;99546.88;4897683;29;20019;-88
2022/01/05 12:46:11;;;;;;;9.55;1.63;;;;;;;4.61;66.11;99547.69;4899233;29;20120;-88